Time;durP1;ratioP1;P1;durP2;ratioP2;P2;SDS_P1;SDS_P2;PMS_P1;PMS_P2;Temp;Humidity;BMP_temperature;BMP_pressure;BME280_temperature;BME280_humidity;BME280_pressure;Samples;Min_cycle;Max_cycle;Signal;HPM_P1;HPM_P2
2021/10/19 00:00:16;;;;;;;19.67;13.65;;;;;;;;;;5055050;28;20017;-47
2021/10/19 00:02:42;;;;;;;24.48;16.30;;;;;;;;;;5054393;28;20033;-50
2021/10/19 00:05:09;;;;;;;36.22;20.27;;;;;;;;;;5055303;28;20021;-48
2021/10/19 00:07:36;;;;;;;29.70;14.40;;;;;;;;;;5055163;28;20024;-48
2021/10/19 00:10:02;;;;;;;54.72;30.13;;;;;;;;;;5055227;28;20021;-51
2021/10/19 00:12:28;;;;;;;26.90;15.95;;;;;;;;;;5055234;28;20025;-50
2021/10/19 00:14:57;;;;;;;25.90;15.98;;;;;;;;;;5055184;28;20032;-48
2021/10/19 00:17:23;;;;;;;41.88;24.60;;;;;;;;;;5055170;28;20021;-48
2021/10/19 00:19:49;;;;;;;28.38;18.08;;;;;;;;;;5055193;28;20074;-49
2021/10/19 00:22:16;;;;;;;26.85;15.13;;;;;;;;;;5054934;28;20025;-47
2021/10/19 00:24:42;;;;;;;48.33;28.10;;;;;;;;;;5054768;28;20052;-53
2021/10/19 00:27:08;;;;;;;37.42;19.13;;;;;;;;;;5054921;28;20091;-48
2021/10/19 00:29:34;;;;;;;33.13;17.75;;;;;;;;;;5054871;28;20021;-49
2021/10/19 00:32:00;;;;;;;36.50;22.52;;;;;;;;;;5054816;28;20036;-48
2021/10/19 00:34:30;;;;;;;55.20;33.05;;;;;;;;;;5054776;28;20029;-48
2021/10/19 00:36:59;;;;;;;24.95;14.88;;;;;;;;;;5054639;28;20106;-48
2021/10/19 00:39:25;;;;;;;40.92;24.02;;;;;;;;;;5054761;28;20507;-49
2021/10/19 00:41:51;;;;;;;33.80;20.88;;;;;;;;;;5054862;28;20387;-48
2021/10/19 00:44:17;;;;;;;21.75;13.75;;;;;;;;;;5054537;28;20029;-49
2021/10/19 00:46:44;;;;;;;24.15;14.30;;;;;;;;;;5054532;28;20485;-52
2021/10/19 00:49:12;;;;;;;26.83;14.38;;;;;;;;;;5054506;28;20029;-47
2021/10/19 00:51:39;;;;;;;28.73;17.73;;;;;;;;;;5054368;28;20047;-47
2021/10/19 00:54:05;;;;;;;44.35;27.88;;;;;;;;;;5054345;28;20033;-48
2021/10/19 00:56:33;;;;;;;53.50;31.42;;;;;;;;;;5054347;28;20029;-48
2021/10/19 00:58:59;;;;;;;72.35;41.03;;;;;;;;;;5054341;28;20025;-51
2021/10/19 01:01:25;;;;;;;59.25;35.80;;;;;;;;;;5054488;28;20036;-48
2021/10/19 01:03:51;;;;;;;31.08;18.73;;;;;;;;;;5054365;28;20104;-49
2021/10/19 01:06:17;;;;;;;33.75;19.83;;;;;;;;;;5054012;28;20072;-49
2021/10/19 01:08:43;;;;;;;30.73;17.52;;;;;;;;;;5054113;28;20029;-49
2021/10/19 01:11:09;;;;;;;23.40;12.93;;;;;;;;;;5054206;28;20075;-48
2021/10/19 01:13:36;;;;;;;42.47;23.77;;;;;;;;;;5054120;28;20129;-49
2021/10/19 01:16:05;;;;;;;26.83;15.70;;;;;;;;;;5054006;28;20500;-48
2021/10/19 01:18:31;;;;;;;41.53;24.30;;;;;;;;;;5054050;28;20036;-48
2021/10/19 01:20:57;;;;;;;53.05;29.95;;;;;;;;;;5053868;28;20025;-48
2021/10/19 01:23:23;;;;;;;97.65;53.25;;;;;;;;;;5053904;28;20515;-48
2021/10/19 01:25:49;;;;;;;150.77;92.32;;;;;;;;;;5053532;28;20071;-48
2021/10/19 01:28:15;;;;;;;97.75;62.05;;;;;;;;;;5053732;28;20029;-48
2021/10/19 01:30:42;;;;;;;57.78;34.63;;;;;;;;;;5053856;28;20443;-49
2021/10/19 01:33:08;;;;;;;46.00;28.05;;;;;;;;;;5053690;28;20090;-47
2021/10/19 01:35:35;;;;;;;41.15;26.35;;;;;;;;;;5053692;28;20021;-48
2021/10/19 01:38:02;;;;;;;40.03;27.58;;;;;;;;;;5053559;28;20460;-48
2021/10/19 01:40:28;;;;;;;44.53;32.83;;;;;;;;;;5053578;28;20040;-49
2021/10/19 01:42:55;;;;;;;40.10;29.77;;;;;;;;;;5053472;28;20035;-48
2021/10/19 01:45:21;;;;;;;36.90;23.48;;;;;;;;;;5052388;28;20098;-49
2021/10/19 01:47:47;;;;;;;23.80;19.27;;;;;;;;;;5053456;28;20025;-47
2021/10/19 01:50:16;;;;;;;25.42;17.25;;;;;;;;;;5053465;28;20029;-48
2021/10/19 01:52:43;;;;;;;23.75;16.65;;;;;;;;;;5053270;28;20071;-48
2021/10/19 01:55:09;;;;;;;20.73;12.98;;;;;;;;;;5053050;28;20388;-48
2021/10/19 01:57:36;;;;;;;23.42;14.68;;;;;;;;;;5053658;28;20425;-53
2021/10/19 02:00:04;;;;;;;24.45;15.68;;;;;;;;;;5053398;28;20457;-48
2021/10/19 02:02:30;;;;;;;18.67;12.88;;;;;;;;;;5053365;28;20025;-49
2021/10/19 02:04:56;;;;;;;20.58;11.68;;;;;;;;;;5053300;28;20300;-49
2021/10/19 02:07:22;;;;;;;22.00;14.20;;;;;;;;;;5053114;28;20111;-49
2021/10/19 02:09:48;;;;;;;20.83;13.90;;;;;;;;;;5051828;28;20087;-49
2021/10/19 02:12:14;;;;;;;22.88;13.57;;;;;;;;;;5053196;28;20040;-49
2021/10/19 02:14:40;;;;;;;20.98;13.15;;;;;;;;;;5053361;28;20029;-49
2021/10/19 02:17:06;;;;;;;22.10;13.48;;;;;;;;;;5053154;28;20021;-50
2021/10/19 02:19:32;;;;;;;20.60;13.73;;;;;;;;;;5053237;28;20032;-48
2021/10/19 02:22:01;;;;;;;22.50;12.98;;;;;;;;;;5052839;28;20488;-48
2021/10/19 02:24:27;;;;;;;18.45;12.68;;;;;;;;;;5052867;28;20083;-48
2021/10/19 02:26:53;;;;;;;29.45;16.00;;;;;;;;;;5053056;28;20065;-48
2021/10/19 02:29:19;;;;;;;25.75;14.65;;;;;;;;;;5053149;28;20067;-49
2021/10/19 02:31:48;;;;;;;21.40;14.77;;;;;;;;;;5053333;28;20021;-49
2021/10/19 02:34:16;;;;;;;21.80;14.55;;;;;;;;;;5052928;28;20024;-49
2021/10/19 02:36:43;;;;;;;20.10;13.18;;;;;;;;;;5052829;28;20021;-49
2021/10/19 02:39:09;;;;;;;23.55;14.40;;;;;;;;;;5053052;28;20092;-48
2021/10/19 02:41:35;;;;;;;24.65;15.25;;;;;;;;;;5053178;28;20435;-49
2021/10/19 02:44:01;;;;;;;37.03;27.80;;;;;;;;;;5052955;28;20021;-49
2021/10/19 02:46:28;;;;;;;30.25;21.75;;;;;;;;;;5052833;28;20125;-49
2021/10/19 02:48:55;;;;;;;33.67;19.88;;;;;;;;;;5052910;28;20025;-49
2021/10/19 02:51:21;;;;;;;36.72;18.73;;;;;;;;;;5052779;28;20504;-51
2021/10/19 02:53:47;;;;;;;28.60;16.25;;;;;;;;;;5052583;28;20029;-49
2021/10/19 02:56:13;;;;;;;23.70;14.50;;;;;;;;;;5052812;28;20036;-49
2021/10/19 02:58:39;;;;;;;21.98;13.18;;;;;;;;;;5052853;28;20070;-51
2021/10/19 03:01:05;;;;;;;19.05;13.27;;;;;;;;;;5052701;28;20048;-49
2021/10/19 03:03:31;;;;;;;20.02;13.13;;;;;;;;;;5052779;28;20094;-49
2021/10/19 03:05:57;;;;;;;22.17;14.32;;;;;;;;;;5052657;28;20029;-49
2021/10/19 03:08:23;;;;;;;25.45;14.90;;;;;;;;;;5055414;28;20525;-49
2021/10/19 03:10:49;;;;;;;27.83;14.23;;;;;;;;;;5056656;28;20028;-49
2021/10/19 03:13:16;;;;;;;26.63;16.70;;;;;;;;;;5056528;28;20021;-50
2021/10/19 03:15:42;;;;;;;34.25;16.65;;;;;;;;;;5056691;28;20025;-49
2021/10/19 03:18:08;;;;;;;33.70;16.25;;;;;;;;;;5056410;28;20032;-49
2021/10/19 03:20:35;;;;;;;33.95;16.60;;;;;;;;;;5056295;28;20029;-49
2021/10/19 03:23:01;;;;;;;34.58;17.95;;;;;;;;;;5056126;28;20029;-49
2021/10/19 03:25:27;;;;;;;177.00;49.85;;;;;;;;;;5055993;28;20132;-49
2021/10/19 03:27:53;;;;;;;125.95;40.72;;;;;;;;;;5056248;28;20396;-49
2021/10/19 03:30:19;;;;;;;63.65;23.77;;;;;;;;;;5056072;28;20032;-51
2021/10/19 03:32:46;;;;;;;41.47;19.92;;;;;;;;;;5055942;28;20053;-49
2021/10/19 03:35:14;;;;;;;33.60;18.15;;;;;;;;;;5055918;28;20055;-49
2021/10/19 03:37:40;;;;;;;35.80;18.60;;;;;;;;;;5055843;28;20035;-49
2021/10/19 03:40:07;;;;;;;23.58;14.68;;;;;;;;;;5056079;28;20082;-49
2021/10/19 03:42:33;;;;;;;30.85;16.83;;;;;;;;;;5055767;28;20032;-49
2021/10/19 03:44:59;;;;;;;24.90;14.25;;;;;;;;;;5056151;28;20028;-50
2021/10/19 03:47:25;;;;;;;30.65;16.08;;;;;;;;;;5055788;28;20041;-47
2021/10/19 03:49:53;;;;;;;27.60;15.05;;;;;;;;;;5055735;28;20029;-50
2021/10/19 03:52:19;;;;;;;29.02;16.27;;;;;;;;;;5055560;28;20043;-49
2021/10/19 03:54:45;;;;;;;29.83;15.57;;;;;;;;;;5055705;28;20508;-49
2021/10/19 03:57:11;;;;;;;27.70;15.07;;;;;;;;;;5055556;28;20029;-49
2021/10/19 03:59:40;;;;;;;34.90;20.50;;;;;;;;;;5055685;28;20115;-49
2021/10/19 04:02:06;;;;;;;56.10;27.65;;;;;;;;;;5055599;28;20047;-49
2021/10/19 04:04:34;;;;;;;80.45;38.72;;;;;;;;;;5055463;28;20044;-49
2021/10/19 04:07:00;;;;;;;92.35;46.42;;;;;;;;;;5055271;28;20040;-51
2021/10/19 04:09:27;;;;;;;78.95;37.63;;;;;;;;;;5055252;28;20021;-49
2021/10/19 04:11:53;;;;;;;36.13;21.20;;;;;;;;;;5055514;28;20024;-50
2021/10/19 04:14:19;;;;;;;30.98;18.70;;;;;;;;;;5055472;28;20028;-52
2021/10/19 04:16:45;;;;;;;26.33;16.63;;;;;;;;;;5055410;28;20033;-52
2021/10/19 04:19:11;;;;;;;32.33;18.95;;;;;;;;;;5054962;28;20033;-49
2021/10/19 04:21:37;;;;;;;29.05;17.27;;;;;;;;;;5054978;28;20025;-50
2021/10/19 04:24:03;;;;;;;24.55;15.15;;;;;;;;;;5054811;28;20029;-50
2021/10/19 04:26:29;;;;;;;25.05;14.57;;;;;;;;;;5055141;28;20126;-50
2021/10/19 04:28:55;;;;;;;28.48;15.40;;;;;;;;;;5055061;28;20039;-48
2021/10/19 04:31:21;;;;;;;26.35;16.35;;;;;;;;;;5055041;28;20473;-51
2021/10/19 04:33:47;;;;;;;27.08;16.08;;;;;;;;;;5054968;28;20033;-49
2021/10/19 04:36:13;;;;;;;39.10;19.02;;;;;;;;;;5054884;28;20021;-51
2021/10/19 04:38:40;;;;;;;46.58;20.63;;;;;;;;;;5054703;28;20032;-49
2021/10/19 04:41:07;;;;;;;41.85;21.27;;;;;;;;;;5054829;28;20464;-49
2021/10/19 04:43:33;;;;;;;44.90;23.42;;;;;;;;;;5054898;28;20021;-51
2021/10/19 04:45:59;;;;;;;49.20;26.77;;;;;;;;;;5054633;28;20539;-49
2021/10/19 04:48:27;;;;;;;49.40;27.10;;;;;;;;;;5054692;28;20029;-50
2021/10/19 04:50:53;;;;;;;43.80;22.13;;;;;;;;;;5054586;28;20025;-49
2021/10/19 04:53:19;;;;;;;36.67;22.80;;;;;;;;;;5054408;28;20031;-48
2021/10/19 04:55:47;;;;;;;46.83;24.08;;;;;;;;;;5054329;28;20037;-49
2021/10/19 04:58:14;;;;;;;40.28;22.13;;;;;;;;;;5054506;28;20082;-49
2021/10/19 05:00:41;;;;;;;41.25;22.48;;;;;;;;;;5054357;28;20017;-50
2021/10/19 05:03:07;;;;;;;44.55;23.45;;;;;;;;;;5054437;28;20029;-50
2021/10/19 05:05:36;;;;;;;73.68;35.63;;;;;;;;;;5054233;28;20028;-49
2021/10/19 05:08:02;;;;;;;78.47;31.83;;;;;;;;;;5054176;28;20025;-50
2021/10/19 05:10:28;;;;;;;94.03;41.35;;;;;;;;;;5054234;28;20021;-50
2021/10/19 05:12:54;;;;;;;96.57;42.40;;;;;;;;;;5054304;28;20036;-49
2021/10/19 05:15:21;;;;;;;97.00;40.55;;;;;;;;;;5054113;28;20381;-49
2021/10/19 05:17:47;;;;;;;104.75;44.05;;;;;;;;;;5054144;28;20502;-49
2021/10/19 05:20:20;;;;;;;134.35;51.33;;;;;;;;;;5054016;28;20021;-49
2021/10/19 05:22:48;;;;;;;119.70;45.60;;;;;;;;;;5053843;28;20047;-49
2021/10/19 05:25:15;;;;;;;187.48;67.32;;;;;;;;;;5053716;28;20198;-49
2021/10/19 05:27:45;;;;;;;183.30;64.90;;;;;;;;;;5053959;28;20055;-48
2021/10/19 05:30:11;;;;;;;147.35;56.80;;;;;;;;;;5053089;28;20025;-49
2021/10/19 05:32:38;;;;;;;139.35;54.95;;;;;;;;;;5053861;28;20044;-49
2021/10/19 05:35:07;;;;;;;121.90;51.97;;;;;;;;;;5053945;28;20052;-49
2021/10/19 05:37:33;;;;;;;111.70;47.33;;;;;;;;;;5053551;28;20354;-50
2021/10/19 05:39:59;;;;;;;110.85;47.17;;;;;;;;;;5053949;28;20017;-48
2021/10/19 05:42:27;;;;;;;102.88;44.75;;;;;;;;;;5053887;28;20424;-49
2021/10/19 05:44:53;;;;;;;88.32;43.58;;;;;;;;;;5053564;28;20048;-49
2021/10/19 05:47:19;;;;;;;86.72;45.40;;;;;;;;;;5053620;28;20037;-49
2021/10/19 05:49:45;;;;;;;84.80;44.35;;;;;;;;;;5053559;28;20439;-49
2021/10/19 05:52:12;;;;;;;65.47;35.97;;;;;;;;;;5053421;28;20108;-49
2021/10/19 05:54:38;;;;;;;74.10;36.42;;;;;;;;;;5053254;28;20029;-49
2021/10/19 05:57:04;;;;;;;78.30;40.65;;;;;;;;;;5053609;28;20057;-49
2021/10/19 05:59:30;;;;;;;83.90;41.97;;;;;;;;;;5053425;28;20027;-48
2021/10/19 06:01:59;;;;;;;85.50;43.38;;;;;;;;;;5053538;28;20024;-49
2021/10/19 06:04:25;;;;;;;87.88;45.10;;;;;;;;;;5053489;28;20017;-48
2021/10/19 06:06:58;;;;;;;78.38;43.55;;;;;;;;;;5053038;28;20040;-49
2021/10/19 06:09:24;;;;;;;84.47;44.50;;;;;;;;;;5053111;28;20029;-49
2021/10/19 06:11:52;;;;;;;189.07;81.22;;;;;;;;;;5053355;28;20350;-48
2021/10/19 06:14:19;;;;;;;156.90;69.50;;;;;;;;;;5053136;28;20111;-49
2021/10/19 06:16:45;;;;;;;152.45;64.72;;;;;;;;;;5053152;28;20083;-48
2021/10/19 06:19:12;;;;;;;200.80;77.70;;;;;;;;;;5053138;28;20548;-48
2021/10/19 06:21:38;;;;;;;201.13;77.32;;;;;;;;;;5052936;28;20469;-48
2021/10/19 06:24:07;;;;;;;195.90;74.80;;;;;;;;;;5052803;28;20025;-50
2021/10/19 06:26:37;;;;;;;177.48;73.40;;;;;;;;;;5053021;28;20173;-52
2021/10/19 06:29:04;;;;;;;169.43;67.93;;;;;;;;;;5053098;28;20074;-51
2021/10/19 06:31:30;;;;;;;128.70;50.33;;;;;;;;;;5052957;28;20025;-60
2021/10/19 06:33:56;;;;;;;271.27;59.42;;;;;;;;;;5052841;28;20074;-57
2021/10/19 06:36:22;;;;;;;99.63;51.50;;;;;;;;;;5052798;28;20477;-56
2021/10/19 06:38:48;;;;;;;149.63;61.40;;;;;;;;;;5052861;28;20031;-56
2021/10/19 06:41:14;;;;;;;158.18;63.95;;;;;;;;;;5053802;28;20045;-53
2021/10/19 06:43:40;;;;;;;159.30;55.42;;;;;;;;;;5056837;28;20061;-59
2021/10/19 06:46:07;;;;;;;124.25;59.72;;;;;;;;;;5056886;28;20466;-60
2021/10/19 06:48:33;;;;;;;134.63;65.70;;;;;;;;;;5056777;28;20479;-47
2021/10/19 06:50:59;;;;;;;146.52;68.93;;;;;;;;;;5056668;28;20029;-52
2021/10/19 06:53:25;;;;;;;138.00;65.60;;;;;;;;;;5056751;28;20029;-57
2021/10/19 06:55:51;;;;;;;111.80;55.58;;;;;;;;;;5056598;28;20033;-46
2021/10/19 06:58:17;;;;;;;100.13;53.83;;;;;;;;;;5056872;28;20043;-47
2021/10/19 07:00:43;;;;;;;89.05;48.33;;;;;;;;;;5056786;28;20377;-52
2021/10/19 07:03:09;;;;;;;94.38;53.83;;;;;;;;;;5055290;28;20091;-47
2021/10/19 07:05:35;;;;;;;94.93;52.05;;;;;;;;;;5056524;28;20421;-48
2021/10/19 07:08:02;;;;;;;76.68;41.35;;;;;;;;;;5056248;28;20076;-47
2021/10/19 07:10:28;;;;;;;66.18;37.72;;;;;;;;;;5056549;28;20465;-47
2021/10/19 07:12:54;;;;;;;48.97;28.98;;;;;;;;;;5056499;28;20067;-54
2021/10/19 07:15:20;;;;;;;43.88;30.13;;;;;;;;;;5056455;28;20113;-47
2021/10/19 07:17:47;;;;;;;49.22;29.33;;;;;;;;;;5056570;28;20075;-46
2021/10/19 07:20:13;;;;;;;41.15;26.08;;;;;;;;;;5056249;28;20025;-47
2021/10/19 07:22:40;;;;;;;44.22;27.95;;;;;;;;;;5056163;28;20083;-47
2021/10/19 07:25:07;;;;;;;44.72;25.80;;;;;;;;;;5055947;28;20056;-47
2021/10/19 07:27:33;;;;;;;46.88;26.20;;;;;;;;;;5056279;28;20071;-47
2021/10/19 07:29:59;;;;;;;44.47;27.33;;;;;;;;;;5056292;28;20539;-46
2021/10/19 07:32:27;;;;;;;44.05;26.75;;;;;;;;;;5056210;28;20032;-47
2021/10/19 07:34:53;;;;;;;27.55;18.80;;;;;;;;;;5056024;28;20410;-47
2021/10/19 07:37:19;;;;;;;42.28;23.48;;;;;;;;;;5055907;28;20378;-46
2021/10/19 07:39:46;;;;;;;33.22;21.98;;;;;;;;;;5055870;28;20020;-47
2021/10/19 07:42:12;;;;;;;45.85;26.23;;;;;;;;;;5056129;28;20029;-47
2021/10/19 07:44:38;;;;;;;54.47;30.45;;;;;;;;;;5056026;28;20105;-47
2021/10/19 07:47:04;;;;;;;55.33;35.08;;;;;;;;;;5055934;28;20107;-48
2021/10/19 07:49:31;;;;;;;57.85;32.60;;;;;;;;;;5055746;28;20107;-47
2021/10/19 07:51:57;;;;;;;58.42;34.55;;;;;;;;;;5055612;28;20060;-47
2021/10/19 07:54:23;;;;;;;53.63;32.55;;;;;;;;;;5054819;28;20506;-47
2021/10/19 07:56:49;;;;;;;67.15;33.95;;;;;;;;;;5055654;28;20448;-47
2021/10/19 07:59:15;;;;;;;57.90;35.15;;;;;;;;;;5055818;28;20027;-47
2021/10/19 08:01:42;;;;;;;55.28;34.15;;;;;;;;;;5055547;28;20032;-47
2021/10/19 08:04:08;;;;;;;62.58;36.85;;;;;;;;;;5055750;28;20021;-48
2021/10/19 08:06:37;;;;;;;55.10;33.03;;;;;;;;;;5055142;28;20025;-47
2021/10/19 08:09:03;;;;;;;50.20;31.73;;;;;;;;;;5055322;28;20036;-47
2021/10/19 08:11:29;;;;;;;50.80;32.40;;;;;;;;;;5055589;28;20100;-47
2021/10/19 08:13:57;;;;;;;50.53;30.73;;;;;;;;;;5055350;28;20104;-48
2021/10/19 08:16:23;;;;;;;54.80;34.00;;;;;;;;;;5055361;28;20033;-47
2021/10/19 08:18:52;;;;;;;60.92;34.60;;;;;;;;;;5055366;28;20040;-47
2021/10/19 08:21:19;;;;;;;51.00;31.55;;;;;;;;;;5055047;28;20025;-47
2021/10/19 08:23:45;;;;;;;54.15;30.92;;;;;;;;;;5054813;28;20132;-47
2021/10/19 08:26:11;;;;;;;47.25;30.25;;;;;;;;;;5054790;28;20045;-46
2021/10/19 08:28:43;;;;;;;42.60;28.58;;;;;;;;;;5055104;28;20047;-47
2021/10/19 08:31:10;;;;;;;45.83;28.23;;;;;;;;;;5054898;28;20025;-47
2021/10/19 08:33:39;;;;;;;46.65;29.17;;;;;;;;;;5054987;28;20034;-47
2021/10/19 08:36:07;;;;;;;39.25;25.90;;;;;;;;;;5054978;28;20047;-47
2021/10/19 08:38:33;;;;;;;40.30;24.60;;;;;;;;;;5054931;28;20029;-48
2021/10/19 08:40:59;;;;;;;27.85;18.23;;;;;;;;;;5054948;28;20021;-47
2021/10/19 08:43:26;;;;;;;19.33;12.43;;;;;;;;;;5054816;28;20044;-46
2021/10/19 08:45:53;;;;;;;37.83;19.15;;;;;;;;;;5054755;28;20056;-47
2021/10/19 08:48:21;;;;;;;23.17;14.75;;;;;;;;;;5054549;28;20041;-46
2021/10/19 08:50:47;;;;;;;28.95;13.13;;;;;;;;;;5054554;28;20021;-47
2021/10/19 08:53:13;;;;;;;22.70;15.90;;;;;;;;;;5054777;28;20029;-47
2021/10/19 08:55:44;;;;;;;25.00;13.13;;;;;;;;;;5054749;28;20535;-48
2021/10/19 08:58:11;;;;;;;18.52;12.05;;;;;;;;;;5054428;28;20516;-47
2021/10/19 09:00:40;;;;;;;30.50;11.60;;;;;;;;;;5054616;28;20070;-47
2021/10/19 09:03:07;;;;;;;18.17;12.45;;;;;;;;;;5054338;28;20033;-47
2021/10/19 09:05:33;;;;;;;15.25;10.07;;;;;;;;;;5053177;28;20112;-48
2021/10/19 09:08:00;;;;;;;17.83;12.10;;;;;;;;;;5054197;28;20036;-47
2021/10/19 09:10:27;;;;;;;18.10;11.60;;;;;;;;;;5054489;28;20480;-48
2021/10/19 09:12:58;;;;;;;21.92;13.45;;;;;;;;;;5054201;28;20029;-48
2021/10/19 09:15:26;;;;;;;23.13;13.50;;;;;;;;;;5054241;28;20384;-47
2021/10/19 09:17:52;;;;;;;21.05;10.98;;;;;;;;;;5054128;28;20021;-48
2021/10/19 09:20:19;;;;;;;21.52;11.23;;;;;;;;;;5053971;28;20037;-47
2021/10/19 09:23:15;;;;;;;15.75;9.73;;;;;;;;;;5054046;28;20469;-47
2021/10/19 09:25:44;;;;;;;16.05;10.52;;;;;;;;;;5053472;28;20076;-49
2021/10/19 09:28:12;;;;;;;19.02;10.80;;;;;;;;;;5054212;28;20033;-49
2021/10/19 09:30:44;;;;;;;15.48;10.27;;;;;;;;;;5053857;28;20021;-48
2021/10/19 09:33:12;;;;;;;15.00;10.80;;;;;;;;;;5053779;28;20025;-48
2021/10/19 09:35:38;;;;;;;15.77;10.27;;;;;;;;;;5053955;28;20116;-48
2021/10/19 09:38:06;;;;;;;17.63;11.30;;;;;;;;;;5054050;28;20025;-48
2021/10/19 09:40:33;;;;;;;15.93;11.10;;;;;;;;;;5053740;28;20029;-49
2021/10/19 09:43:00;;;;;;;14.85;10.30;;;;;;;;;;5053729;28;20032;-48
2021/10/19 09:45:26;;;;;;;16.00;10.70;;;;;;;;;;5053465;28;20041;-48
2021/10/19 09:47:56;;;;;;;20.35;12.15;;;;;;;;;;5053471;28;20064;-48
2021/10/19 09:50:24;;;;;;;17.85;11.02;;;;;;;;;;5052214;28;20116;-48
2021/10/19 09:52:51;;;;;;;18.08;12.25;;;;;;;;;;5053732;28;20407;-48
2021/10/19 09:55:17;;;;;;;14.38;10.52;;;;;;;;;;5053470;28;20035;-48
2021/10/19 09:57:49;;;;;;;16.45;11.10;;;;;;;;;;5053383;28;20025;-48
2021/10/19 10:00:16;;;;;;;17.92;10.20;;;;;;;;;;5053253;28;20025;-48
2021/10/19 10:02:44;;;;;;;17.17;8.65;;;;;;;;;;5053224;28;20068;-48
2021/10/19 10:05:11;;;;;;;12.05;8.23;;;;;;;;;;5053697;28;20037;-47
2021/10/19 10:07:37;;;;;;;13.10;7.50;;;;;;;;;;5053311;28;20385;-47
2021/10/19 10:10:04;;;;;;;15.32;7.88;;;;;;;;;;5053073;28;20021;-48
2021/10/19 10:12:31;;;;;;;14.35;6.80;;;;;;;;;;5051894;28;20043;-48
2021/10/19 10:14:58;;;;;;;10.88;6.57;;;;;;;;;;5053150;28;20025;-47
2021/10/19 10:17:24;;;;;;;9.32;6.43;;;;;;;;;;5053005;28;20125;-48
2021/10/19 10:19:51;;;;;;;10.85;6.13;;;;;;;;;;5053342;28;20025;-48
2021/10/19 10:22:17;;;;;;;10.68;7.22;;;;;;;;;;5053471;28;20025;-48
2021/10/19 10:24:43;;;;;;;11.30;7.30;;;;;;;;;;5052921;28;20049;-48
2021/10/19 10:27:12;;;;;;;11.93;7.32;;;;;;;;;;5053145;28;20139;-47
2021/10/19 10:29:39;;;;;;;14.68;7.68;;;;;;;;;;5053053;28;20044;-48
2021/10/19 10:32:06;;;;;;;14.30;7.15;;;;;;;;;;5053285;28;20021;-48
2021/10/19 10:34:33;;;;;;;11.98;7.20;;;;;;;;;;5053023;28;20071;-48
2021/10/19 10:37:11;;;;;;;11.27;7.10;;;;;;;;;;5053396;28;20017;-48
2021/10/19 10:39:40;;;;;;;13.18;6.70;;;;;;;;;;5053041;28;20527;-47
2021/10/19 10:42:08;;;;;;;15.45;7.28;;;;;;;;;;5052820;28;20032;-48
2021/10/19 10:44:36;;;;;;;11.25;7.30;;;;;;;;;;5053263;28;20393;-47
2021/10/19 10:47:05;;;;;;;15.15;7.65;;;;;;;;;;5052980;28;20033;-48
2021/10/19 10:49:32;;;;;;;16.73;7.72;;;;;;;;;;5052970;28;20052;-48
2021/10/19 10:52:00;;;;;;;14.80;7.95;;;;;;;;;;5052993;28;20521;-48
2021/10/19 10:54:26;;;;;;;12.98;8.07;;;;;;;;;;5052888;28;20436;-48
2021/10/19 10:56:54;;;;;;;16.67;8.23;;;;;;;;;;5052715;28;20116;-47
2021/10/19 10:59:38;;;;;;;18.73;8.80;;;;;;;;;;5053088;28;20028;-48
2021/10/19 11:02:08;;;;;;;14.55;8.25;;;;;;;;;;5052861;28;20025;-48
2021/10/19 11:04:34;;;;;;;10.95;7.78;;;;;;;;;;5052792;28;20362;-47
2021/10/19 11:07:00;;;;;;;12.68;7.22;;;;;;;;;;5052742;28;20037;-48
2021/10/19 11:09:29;;;;;;;13.43;7.55;;;;;;;;;;5052758;28;20482;-49
2021/10/19 11:11:58;;;;;;;13.30;8.18;;;;;;;;;;5052834;28;20033;-47
2021/10/19 11:14:26;;;;;;;13.40;7.70;;;;;;;;;;5052622;28;20029;-48
2021/10/19 11:16:56;;;;;;;13.90;8.27;;;;;;;;;;5052677;28;20017;-47
2021/10/19 11:19:29;;;;;;;12.43;7.05;;;;;;;;;;5052663;28;20025;-47
2021/10/19 11:21:59;;;;;;;12.75;8.25;;;;;;;;;;5052797;28;20377;-47
2021/10/19 11:24:26;;;;;;;11.17;7.00;;;;;;;;;;5052363;28;20116;-48
2021/10/19 11:26:55;;;;;;;10.65;7.50;;;;;;;;;;5052594;28;20041;-47
2021/10/19 11:29:22;;;;;;;11.02;7.40;;;;;;;;;;5055198;28;20514;-49
2021/10/19 11:31:49;;;;;;;13.68;8.23;;;;;;;;;;5056343;28;20063;-48
2021/10/19 11:34:15;;;;;;;15.95;8.90;;;;;;;;;;5056184;28;20025;-49
2021/10/19 11:36:41;;;;;;;10.38;6.57;;;;;;;;;;5056043;28;20021;-48
2021/10/19 11:39:11;;;;;;;14.77;6.68;;;;;;;;;;5056096;28;20033;-48
2021/10/19 11:41:38;;;;;;;10.45;6.55;;;;;;;;;;5056244;28;20033;-48
2021/10/19 11:44:06;;;;;;;9.88;6.10;;;;;;;;;;5056119;28;20552;-48
2021/10/19 11:46:35;;;;;;;9.35;5.57;;;;;;;;;;5055971;28;20040;-47
2021/10/19 11:49:17;;;;;;;9.35;6.90;;;;;;;;;;5055920;28;20037;-48
2021/10/19 11:51:49;;;;;;;10.52;5.35;;;;;;;;;;5056015;28;20036;-48
2021/10/19 11:54:16;;;;;;;10.25;6.20;;;;;;;;;;5055806;28;20028;-48
2021/10/19 11:56:53;;;;;;;10.82;6.00;;;;;;;;;;5055877;28;20180;-47
2021/10/19 11:59:19;;;;;;;9.98;6.10;;;;;;;;;;5054733;28;20752;-47
2021/10/19 12:01:45;;;;;;;10.10;5.53;;;;;;;;;;5054249;28;20185;-46
2021/10/19 12:04:12;;;;;;;13.30;7.75;;;;;;;;;;5051976;28;20064;-46
2021/10/19 12:06:42;;;;;;;13.60;6.80;;;;;;;;;;5051616;28;20123;-49
2021/10/19 12:09:18;;;;;;;28.05;15.30;;;;;;;;;;5053595;28;20021;-45
2021/10/19 12:11:48;;;;;;;12.55;6.22;;;;;;;;;;5051987;28;20017;-47
2021/10/19 12:14:15;;;;;;;10.68;6.80;;;;;;;;;;5052665;28;20163;-47
2021/10/19 12:16:41;;;;;;;24.15;10.00;;;;;;;;;;5054189;28;20017;-50
2021/10/19 12:19:07;;;;;;;17.08;11.00;;;;;;;;;;5054611;28;20102;-44
2021/10/19 12:21:33;;;;;;;57.53;9.82;;;;;;;;;;5054931;28;20044;-46
2021/10/19 12:24:02;;;;;;;18.85;9.10;;;;;;;;;;5054588;28;20096;-47
2021/10/19 12:26:29;;;;;;;14.27;6.40;;;;;;;;;;5054001;28;20051;-48
2021/10/19 12:28:57;;;;;;;23.98;13.75;;;;;;;;;;5054627;28;20021;-47
2021/10/19 12:31:24;;;;;;;12.52;8.52;;;;;;;;;;5054446;28;20063;-47
2021/10/19 12:34:01;;;;;;;12.63;6.95;;;;;;;;;;5052388;28;20032;-47
2021/10/19 12:36:30;;;;;;;23.40;14.10;;;;;;;;;;5052969;28;20420;-45
2021/10/19 12:39:01;;;;;;;28.45;17.15;;;;;;;;;;5054763;28;20036;-47
2021/10/19 12:41:27;;;;;;;12.63;6.93;;;;;;;;;;5055016;28;20025;-45
2021/10/19 12:43:57;;;;;;;20.08;11.48;;;;;;;;;;5054891;28;20021;-48
2021/10/19 12:46:24;;;;;;;26.45;13.35;;;;;;;;;;5054794;28;20029;-47
2021/10/19 12:48:50;;;;;;;27.73;14.32;;;;;;;;;;5054447;28;20083;-46
2021/10/19 12:51:18;;;;;;;22.40;11.20;;;;;;;;;;5054818;28;20063;-51
2021/10/19 12:53:49;;;;;;;24.38;14.15;;;;;;;;;;5054544;28;20025;-51
2021/10/19 12:56:16;;;;;;;20.20;9.97;;;;;;;;;;5054861;28;20424;-47
2021/10/19 12:58:42;;;;;;;13.63;6.53;;;;;;;;;;5054981;28;20286;-50
2021/10/19 13:01:08;;;;;;;10.40;7.28;;;;;;;;;;5054725;28;20033;-46
2021/10/19 13:03:35;;;;;;;24.35;12.32;;;;;;;;;;5054617;28;20028;-46
2021/10/19 13:06:04;;;;;;;19.15;11.10;;;;;;;;;;5054208;28;20032;-48
2021/10/19 13:08:32;;;;;;;27.60;14.80;;;;;;;;;;5054094;28;20028;-46
2021/10/19 13:10:59;;;;;;;14.40;8.82;;;;;;;;;;5054235;28;20079;-46
2021/10/19 13:13:25;;;;;;;46.00;21.40;;;;;;;;;;5054427;28;20064;-50
2021/10/19 13:15:51;;;;;;;30.27;16.65;;;;;;;;;;5054321;28;20097;-46
2021/10/19 13:18:17;;;;;;;16.95;8.43;;;;;;;;;;5054178;28;20040;-52
2021/10/19 13:20:43;;;;;;;29.98;14.73;;;;;;;;;;5054228;28;20025;-46
2021/10/19 13:23:12;;;;;;;18.38;10.15;;;;;;;;;;5054224;28;20032;-45
2021/10/19 13:25:38;;;;;;;11.45;7.10;;;;;;;;;;5053771;28;20170;-46
2021/10/19 13:28:04;;;;;;;14.57;8.13;;;;;;;;;;5053871;28;20041;-46
2021/10/19 13:30:31;;;;;;;14.80;9.85;;;;;;;;;;5053954;28;20071;-46
2021/10/19 13:32:58;;;;;;;13.43;8.50;;;;;;;;;;5054084;28;20071;-44
2021/10/19 13:35:24;;;;;;;33.58;16.55;;;;;;;;;;5053966;28;20057;-47
2021/10/19 13:37:50;;;;;;;17.23;11.80;;;;;;;;;;5053770;28;20033;-48
2021/10/19 13:40:18;;;;;;;13.68;9.60;;;;;;;;;;5053899;28;20461;-46
2021/10/19 13:42:44;;;;;;;15.70;9.88;;;;;;;;;;5053746;28;20025;-47
2021/10/19 13:45:11;;;;;;;20.48;11.88;;;;;;;;;;5053804;28;20484;-49
2021/10/19 13:47:38;;;;;;;13.10;8.38;;;;;;;;;;5053839;28;20040;-47
2021/10/19 13:50:05;;;;;;;16.27;9.43;;;;;;;;;;5053710;28;20025;-46
2021/10/19 13:52:31;;;;;;;19.98;10.48;;;;;;;;;;5053092;28;20469;-47
2021/10/19 13:55:00;;;;;;;9.88;6.47;;;;;;;;;;5053495;28;20039;-47
2021/10/19 13:57:28;;;;;;;9.23;6.50;;;;;;;;;;5053524;28;20420;-47
2021/10/19 13:59:54;;;;;;;17.45;7.47;;;;;;;;;;5053778;28;20025;-46
2021/10/19 14:02:20;;;;;;;170.18;118.07;;;;;;;;;;5052388;28;20032;-46
2021/10/19 14:04:46;;;;;;;193.63;92.43;;;;;;;;;;5053438;28;20028;-52
2021/10/19 14:07:13;;;;;;;32.33;16.80;;;;;;;;;;5052193;28;20036;-51
2021/10/19 14:09:39;;;;;;;18.58;9.73;;;;;;;;;;5053338;28;20477;-46
2021/10/19 14:12:05;;;;;;;16.10;8.80;;;;;;;;;;5053286;28;20033;-49
2021/10/19 14:14:32;;;;;;;18.27;7.40;;;;;;;;;;5052848;28;20029;-46
2021/10/19 14:16:58;;;;;;;12.40;7.82;;;;;;;;;;5053440;28;20381;-46